M4 — V7YF6 — position and weather

sailwx.info

Track history (hours):
 
Tides and Currents Weather Stations Pressure Air Temp Water Temp Dewpoint Dewpoint Depression Visibility Wind Speed Wind Dir Waves Ship Positions

M4

Last reported at 2016-Dec-11 01:32 UTC. Time now 2016-Dec-11 02:14 UTC.
Position N 26°50' W 080°03'.

Length 42 m; draft 2.4 m.

Type: Pleasure craft. MMSI: 538070835.

Date/timePositionNaut miles runAvg speedWind from/ knotsBaromVisibWave heightAir tempDewpointWater temp
2016-Dec-11 01:32N 26°50' W 080°03'0 0.0
2016-Dec-10 22:21N 26°50' W 080°03'0 0.0
2016-Dec-10 21:28N 26°50' W 080°03'  
2016-Dec-08 15:33N 26°50' W 080°03'0 0.0
2016-Dec-08 14:30N 26°50' W 080°03'0 0.0
2016-Dec-08 13:29N 26°50' W 080°03'0 0.0
2016-Dec-08 12:33N 26°50' W 080°03'0 0.0
2016-Dec-07 21:13N 26°50' W 080°03'0 0.0
2016-Dec-07 19:06N 26°50' W 080°03'2 4.3
2016-Dec-07 18:33N 26°48' W 080°03'23 9.2
2016-Dec-07 16:05N 26°25' W 080°01'611.3
2016-Dec-07 15:32N 26°19' W 080°01'1211.7
2016-Dec-07 14:33N 26°07' W 080°02'1413.8
2016-Dec-07 13:33N 25°53' W 080°03'9 9.2
2016-Dec-07 12:34N 25°46' W 080°09'2 1.7
2016-Dec-07 11:21N 25°46' W 080°11'0 0.0
2016-Dec-07 10:32N 25°46' W 080°11'0 0.0
2016-Dec-07 09:08N 25°46' W 080°11'0 0.1
2016-Dec-07 08:32N 25°46' W 080°11'0 0.0
2016-Dec-07 07:32N 25°46' W 080°11'0 0.0
2016-Dec-07 06:32N 25°46' W 080°11'0 0.0
2016-Dec-07 05:32N 25°46' W 080°11'0 0.1
2016-Dec-07 04:32N 25°46' W 080°11'0 0.0
2016-Dec-07 03:32N 25°46' W 080°11'0 0.0
2016-Dec-07 02:32N 25°46' W 080°11'0 0.0
2016-Dec-07 01:32N 25°46' W 080°11'0 0.0
2016-Dec-07 00:32N 25°46' W 080°11'0 0.0
2016-Dec-06 23:32N 25°46' W 080°11'0 0.0
2016-Dec-06 22:29N 25°46' W 080°11'0 0.0
2016-Dec-06 21:32N 25°46' W 080°11'0 0.0
2016-Dec-06 20:32N 25°46' W 080°11'0 0.0
2016-Dec-06 18:32N 25°46' W 080°11'0 0.1
2016-Dec-06 17:32N 25°46' W 080°11'0 0.1
2016-Dec-06 16:32N 25°46' W 080°11'0 0.0
2016-Dec-06 15:32N 25°46' W 080°11'0 0.0
2016-Dec-06 14:32N 25°46' W 080°11'0 0.0
2016-Dec-06 13:32N 25°46' W 080°11'0 0.0
2016-Dec-06 12:32N 25°46' W 080°11'0 0.0
2016-Dec-06 11:26N 25°46' W 080°11'0 0.0
2016-Dec-06 10:32N 25°46' W 080°11'0 0.1
2016-Dec-06 09:23N 25°46' W 080°11'0 0.1
2016-Dec-06 08:32N 25°46' W 080°11'0 0.0
2016-Dec-06 07:32N 25°46' W 080°11'0 0.0
2016-Dec-06 06:32N 25°46' W 080°11'0 0.0
2016-Dec-06 05:32N 25°46' W 080°11'0 0.0
2016-Dec-06 04:32N 25°46' W 080°11'0 0.0
2016-Dec-06 03:32N 25°46' W 080°11'0 0.0
2016-Dec-06 02:32N 25°46' W 080°11'0 0.0
2016-Dec-06 01:32N 25°46' W 080°11'0 0.0
2016-Dec-06 00:32N 25°46' W 080°11'0 0.0
2016-Dec-05 23:32N 25°46' W 080°11'0 0.1
2016-Dec-05 22:31N 25°46' W 080°11'0 0.0
2016-Dec-05 21:31N 25°46' W 080°11'0 0.0
2016-Dec-05 20:31N 25°46' W 080°11'0 0.0
2016-Dec-05 19:31N 25°46' W 080°11'0 0.0
2016-Dec-05 18:31N 25°46' W 080°11'0 0.0
2016-Dec-05 17:31N 25°46' W 080°11'0 0.0
2016-Dec-05 16:31N 25°46' W 080°11'0 0.0
2016-Dec-05 15:31N 25°46' W 080°11'0 0.0
2016-Dec-05 14:31N 25°46' W 080°11'0 0.0
2016-Dec-05 13:31N 25°46' W 080°11'0 0.0
2016-Dec-05 12:31N 25°46' W 080°11'0 0.0
2016-Dec-05 11:31N 25°46' W 080°11'0 0.0
2016-Dec-05 10:31N 25°46' W 080°11'0 0.1
2016-Dec-05 09:28N 25°46' W 080°11'0 0.1
2016-Dec-05 08:31N 25°46' W 080°11'0 0.0
2016-Dec-05 07:31N 25°46' W 080°11'0 0.0
2016-Dec-05 06:31N 25°46' W 080°11'0 0.0
2016-Dec-05 05:31N 25°46' W 080°11'0 0.0
2016-Dec-05 04:31N 25°46' W 080°11'0 0.0
2016-Dec-05 03:33N 25°46' W 080°11'0 0.0
2016-Dec-05 02:33N 25°46' W 080°11'0 0.0
2016-Dec-05 01:33N 25°46' W 080°11'0 0.0
2016-Dec-05 00:33N 25°46' W 080°11'0 0.0
2016-Dec-04 23:33N 25°46' W 080°11'0 0.0
2016-Dec-04 22:33N 25°46' W 080°11'0 0.0
2016-Dec-04 21:33N 25°46' W 080°11'0 0.0
2016-Dec-04 20:33N 25°46' W 080°11'0 0.0
2016-Dec-04 19:33N 25°46' W 080°11'0 0.0
2016-Dec-04 18:33N 25°46' W 080°11'0 0.0
2016-Dec-04 17:33N 25°46' W 080°11'0 0.0
2016-Dec-04 16:33N 25°46' W 080°11'0 0.0
2016-Dec-04 15:33N 25°46' W 080°11'0 0.0
2016-Dec-04 14:33N 25°46' W 080°11'0 0.0
2016-Dec-04 13:33N 25°46' W 080°11'0 0.0
2016-Dec-04 12:33N 25°46' W 080°11'0 0.0
2016-Dec-04 11:33N 25°46' W 080°11'0 0.0
2016-Dec-04 10:33N 25°46' W 080°11'0 0.1
2016-Dec-04 09:33N 25°46' W 080°11'0 0.1
2016-Dec-04 08:33N 25°46' W 080°11'0 0.0
2016-Dec-04 07:33N 25°46' W 080°11'0 0.0
2016-Dec-04 06:33N 25°46' W 080°11'0 0.0
2016-Dec-04 05:33N 25°46' W 080°11'0 0.0
2016-Dec-04 04:33N 25°46' W 080°11'0 0.0
2016-Dec-04 03:33N 25°46' W 080°11'0 0.0
2016-Dec-04 02:33N 25°46' W 080°11'0 0.0
2016-Dec-04 01:33N 25°46' W 080°11'0 0.0
2016-Dec-04 00:33N 25°46' W 080°11'0 0.0
2016-Dec-03 23:33N 25°46' W 080°11'0 0.0
2016-Dec-03 22:30N 25°46' W 080°11'0 0.0
2016-Dec-03 21:33N 25°46' W 080°11'0 0.0
2016-Dec-03 20:33N 25°46' W 080°11'0 0.0
2016-Dec-03 19:33N 25°46' W 080°11'0 0.0
2016-Dec-03 18:33N 25°46' W 080°11'0 0.0
2016-Dec-03 17:33N 25°46' W 080°11'0 0.0
2016-Dec-03 16:33N 25°46' W 080°11'0 0.0
2016-Dec-03 15:33N 25°46' W 080°11'0 0.0
2016-Dec-03 14:33N 25°46' W 080°11'0 0.0
2016-Dec-03 13:33N 25°46' W 080°11'0 0.0
2016-Dec-03 12:33N 25°46' W 080°11'0 0.0
2016-Dec-03 11:09N 25°46' W 080°11'0 0.0
2016-Dec-03 10:33N 25°46' W 080°11'0 0.0
2016-Dec-03 09:27N 25°46' W 080°11'0 0.0
2016-Dec-03 08:33N 25°46' W 080°11'0 0.0
2016-Dec-03 07:33N 25°46' W 080°11'0 0.1
2016-Dec-03 06:33N 25°46' W 080°11'0 0.1
2016-Dec-03 05:33N 25°46' W 080°11'0 0.0
2016-Dec-03 04:33N 25°46' W 080°11'0 0.0
2016-Dec-03 03:24N 25°46' W 080°11'0 0.0
2016-Dec-03 02:33N 25°46' W 080°11'0 0.0
2016-Dec-03 01:33N 25°46' W 080°11'0 0.0
2016-Dec-03 00:33N 25°46' W 080°11'0 0.0
2016-Dec-02 23:33N 25°46' W 080°11'0 0.0
2016-Dec-02 22:33N 25°46' W 080°11'0 0.0
2016-Dec-02 21:33N 25°46' W 080°11'0 0.0
2016-Dec-02 20:33N 25°46' W 080°11'0 0.1
2016-Dec-02 19:33N 25°46' W 080°11'0 0.0
2016-Dec-02 18:33N 25°46' W 080°11'0 0.0
2016-Dec-02 17:33N 25°46' W 080°11'0 0.0
2016-Dec-02 16:33N 25°46' W 080°11'0 0.0
2016-Dec-02 15:33N 25°46' W 080°11'0 0.0
2016-Dec-02 14:33N 25°46' W 080°11'0 0.0
2016-Dec-02 13:33N 25°46' W 080°11'0 0.0
2016-Dec-02 12:33N 25°46' W 080°11'0 0.1
2016-Dec-02 11:12N 25°46' W 080°11'0 0.1
2016-Dec-02 10:33N 25°46' W 080°11'0 0.0
2016-Dec-02 09:33N 25°46' W 080°11'0 0.0
2016-Dec-02 08:33N 25°46' W 080°11'0 0.0
2016-Dec-02 07:33N 25°46' W 080°11'0 0.1
2016-Dec-02 06:33N 25°46' W 080°11'0 0.1
2016-Dec-02 05:33N 25°46' W 080°11'0 0.0
2016-Dec-02 04:33N 25°46' W 080°11'0 0.0
2016-Dec-02 03:33N 25°46' W 080°11'0 0.0
2016-Dec-02 02:33N 25°46' W 080°11'0 0.0
2016-Dec-02 01:33N 25°46' W 080°11'0 0.0
2016-Dec-02 00:33N 25°46' W 080°11'0 0.0
2016-Dec-01 23:18N 25°46' W 080°11'0 0.1
2016-Dec-01 22:33N 25°46' W 080°11'0 0.0
2016-Dec-01 21:33N 25°46' W 080°11'0 0.0
2016-Dec-01 20:33N 25°46' W 080°11'0 0.1
2016-Dec-01 19:33N 25°46' W 080°11'0 0.0
2016-Dec-01 18:33N 25°46' W 080°11'0 0.0
2016-Dec-01 17:33N 25°46' W 080°11'0 0.0
2016-Dec-01 16:33N 25°46' W 080°11'0 0.0
2016-Dec-01 15:33N 25°46' W 080°11'0 0.0
2016-Dec-01 14:33N 25°46' W 080°11'0 0.0
2016-Dec-01 13:33N 25°46' W 080°11'0 0.0
2016-Dec-01 12:33N 25°46' W 080°11'0 0.1
2016-Dec-01 11:18N 25°46' W 080°11'0 0.1
2016-Dec-01 10:33N 25°46' W 080°11'0 0.0
2016-Dec-01 09:33N 25°46' W 080°11'0 0.0
2016-Dec-01 08:33N 25°46' W 080°11'0 0.0
2016-Dec-01 07:33N 25°46' W 080°11'0 0.0
2016-Dec-01 06:33N 25°46' W 080°11'0 0.0
2016-Dec-01 05:33N 25°46' W 080°11'0 0.0
2016-Dec-01 04:33N 25°46' W 080°11'0 0.0
2016-Dec-01 03:30N 25°46' W 080°11'0 0.0
2016-Dec-01 02:33N 25°46' W 080°11'0 0.1
2016-Dec-01 01:33N 25°46' W 080°11'  
Track history (hours):
 
Tides and Currents Weather Stations Pressure Air Temp Water Temp Dewpoint Dewpoint Depression Visibility Wind Speed Wind Dir Waves Ship Positions

M4

Last reported at 2016-Dec-11 01:32 UTC. Time now 2016-Dec-11 02:14 UTC.
Position N 26°50' W 080°03'.

Length 42 m; draft 2.4 m.

Type: Pleasure craft. MMSI: 538070835.

Date/timePositionNaut miles runAvg speedWind from/ knotsBaromVisibWave heightAir tempDewpointWater temp
2016-Dec-11 01:32N 26°50' W 080°03'0 0.0
2016-Dec-10 22:21N 26°50' W 080°03'0 0.0
2016-Dec-10 21:28N 26°50' W 080°03'  
2016-Dec-08 15:33N 26°50' W 080°03'0 0.0
2016-Dec-08 14:30N 26°50' W 080°03'0 0.0
2016-Dec-08 13:29N 26°50' W 080°03'0 0.0
2016-Dec-08 12:33N 26°50' W 080°03'0 0.0
2016-Dec-07 21:13N 26°50' W 080°03'0 0.0
2016-Dec-07 19:06N 26°50' W 080°03'2 4.3
2016-Dec-07 18:33N 26°48' W 080°03'23 9.2
2016-Dec-07 16:05N 26°25' W 080°01'611.3
2016-Dec-07 15:32N 26°19' W 080°01'1211.7
2016-Dec-07 14:33N 26°07' W 080°02'1413.8
2016-Dec-07 13:33N 25°53' W 080°03'9 9.2
2016-Dec-07 12:34N 25°46' W 080°09'2 1.7
2016-Dec-07 11:21N 25°46' W 080°11'0 0.0
2016-Dec-07 10:32N 25°46' W 080°11'0 0.0
2016-Dec-07 09:08N 25°46' W 080°11'0 0.1
2016-Dec-07 08:32N 25°46' W 080°11'0 0.0
2016-Dec-07 07:32N 25°46' W 080°11'0 0.0
2016-Dec-07 06:32N 25°46' W 080°11'0 0.0
2016-Dec-07 05:32N 25°46' W 080°11'0 0.1
2016-Dec-07 04:32N 25°46' W 080°11'0 0.0
2016-Dec-07 03:32N 25°46' W 080°11'0 0.0
2016-Dec-07 02:32N 25°46' W 080°11'0 0.0
2016-Dec-07 01:32N 25°46' W 080°11'0 0.0
2016-Dec-07 00:32N 25°46' W 080°11'0 0.0
2016-Dec-06 23:32N 25°46' W 080°11'0 0.0
2016-Dec-06 22:29N 25°46' W 080°11'0 0.0
2016-Dec-06 21:32N 25°46' W 080°11'0 0.0
2016-Dec-06 20:32N 25°46' W 080°11'0 0.0
2016-Dec-06 18:32N 25°46' W 080°11'0 0.1
2016-Dec-06 17:32N 25°46' W 080°11'0 0.1
2016-Dec-06 16:32N 25°46' W 080°11'0 0.0
2016-Dec-06 15:32N 25°46' W 080°11'0 0.0
2016-Dec-06 14:32N 25°46' W 080°11'0 0.0
2016-Dec-06 13:32N 25°46' W 080°11'0 0.0
2016-Dec-06 12:32N 25°46' W 080°11'0 0.0
2016-Dec-06 11:26N 25°46' W 080°11'0 0.0
2016-Dec-06 10:32N 25°46' W 080°11'0 0.1
2016-Dec-06 09:23N 25°46' W 080°11'0 0.1
2016-Dec-06 08:32N 25°46' W 080°11'0 0.0
2016-Dec-06 07:32N 25°46' W 080°11'0 0.0
2016-Dec-06 06:32N 25°46' W 080°11'0 0.0
2016-Dec-06 05:32N 25°46' W 080°11'0 0.0
2016-Dec-06 04:32N 25°46' W 080°11'0 0.0
2016-Dec-06 03:32N 25°46' W 080°11'0 0.0
2016-Dec-06 02:32N 25°46' W 080°11'0 0.0
2016-Dec-06 01:32N 25°46' W 080°11'0 0.0
2016-Dec-06 00:32N 25°46' W 080°11'0 0.0
2016-Dec-05 23:32N 25°46' W 080°11'0 0.1
2016-Dec-05 22:31N 25°46' W 080°11'0 0.0
2016-Dec-05 21:31N 25°46' W 080°11'0 0.0
2016-Dec-05 20:31N 25°46' W 080°11'0 0.0
2016-Dec-05 19:31N 25°46' W 080°11'0 0.0
2016-Dec-05 18:31N 25°46' W 080°11'0 0.0
2016-Dec-05 17:31N 25°46' W 080°11'0 0.0
2016-Dec-05 16:31N 25°46' W 080°11'0 0.0
2016-Dec-05 15:31N 25°46' W 080°11'0 0.0
2016-Dec-05 14:31N 25°46' W 080°11'0 0.0
2016-Dec-05 13:31N 25°46' W 080°11'0 0.0
2016-Dec-05 12:31N 25°46' W 080°11'0 0.0
2016-Dec-05 11:31N 25°46' W 080°11'0 0.0
2016-Dec-05 10:31N 25°46' W 080°11'0 0.1
2016-Dec-05 09:28N 25°46' W 080°11'0 0.1
2016-Dec-05 08:31N 25°46' W 080°11'0 0.0
2016-Dec-05 07:31N 25°46' W 080°11'0 0.0
2016-Dec-05 06:31N 25°46' W 080°11'0 0.0
2016-Dec-05 05:31N 25°46' W 080°11'0 0.0
2016-Dec-05 04:31N 25°46' W 080°11'0 0.0
2016-Dec-05 03:33N 25°46' W 080°11'0 0.0
2016-Dec-05 02:33N 25°46' W 080°11'0 0.0
2016-Dec-05 01:33N 25°46' W 080°11'0 0.0
2016-Dec-05 00:33N 25°46' W 080°11'0 0.0
2016-Dec-04 23:33N 25°46' W 080°11'0 0.0
2016-Dec-04 22:33N 25°46' W 080°11'0 0.0
2016-Dec-04 21:33N 25°46' W 080°11'0 0.0
2016-Dec-04 20:33N 25°46' W 080°11'0 0.0
2016-Dec-04 19:33N 25°46' W 080°11'0 0.0
2016-Dec-04 18:33N 25°46' W 080°11'0 0.0
2016-Dec-04 17:33N 25°46' W 080°11'0 0.0
2016-Dec-04 16:33N 25°46' W 080°11'0 0.0
2016-Dec-04 15:33N 25°46' W 080°11'0 0.0
2016-Dec-04 14:33N 25°46' W 080°11'0 0.0
2016-Dec-04 13:33N 25°46' W 080°11'0 0.0
2016-Dec-04 12:33N 25°46' W 080°11'0 0.0
2016-Dec-04 11:33N 25°46' W 080°11'0 0.0
2016-Dec-04 10:33N 25°46' W 080°11'0 0.1
2016-Dec-04 09:33N 25°46' W 080°11'0 0.1
2016-Dec-04 08:33N 25°46' W 080°11'0 0.0
2016-Dec-04 07:33N 25°46' W 080°11'0 0.0
2016-Dec-04 06:33N 25°46' W 080°11'0 0.0
2016-Dec-04 05:33N 25°46' W 080°11'0 0.0
2016-Dec-04 04:33N 25°46' W 080°11'0 0.0
2016-Dec-04 03:33N 25°46' W 080°11'0 0.0
2016-Dec-04 02:33N 25°46' W 080°11'0 0.0
2016-Dec-04 01:33N 25°46' W 080°11'0 0.0
2016-Dec-04 00:33N 25°46' W 080°11'0 0.0
2016-Dec-03 23:33N 25°46' W 080°11'0 0.0
2016-Dec-03 22:30N 25°46' W 080°11'0 0.0
2016-Dec-03 21:33N 25°46' W 080°11'0 0.0
2016-Dec-03 20:33N 25°46' W 080°11'0 0.0
2016-Dec-03 19:33N 25°46' W 080°11'0 0.0
2016-Dec-03 18:33N 25°46' W 080°11'0 0.0
2016-Dec-03 17:33N 25°46' W 080°11'0 0.0
2016-Dec-03 16:33N 25°46' W 080°11'0 0.0
2016-Dec-03 15:33N 25°46' W 080°11'0 0.0
2016-Dec-03 14:33N 25°46' W 080°11'0 0.0
2016-Dec-03 13:33N 25°46' W 080°11'0 0.0
2016-Dec-03 12:33N 25°46' W 080°11'0 0.0
2016-Dec-03 11:09N 25°46' W 080°11'0 0.0
2016-Dec-03 10:33N 25°46' W 080°11'0 0.0
2016-Dec-03 09:27N 25°46' W 080°11'0 0.0
2016-Dec-03 08:33N 25°46' W 080°11'0 0.0
2016-Dec-03 07:33N 25°46' W 080°11'0 0.1
2016-Dec-03 06:33N 25°46' W 080°11'0 0.1
2016-Dec-03 05:33N 25°46' W 080°11'0 0.0
2016-Dec-03 04:33N 25°46' W 080°11'0 0.0
2016-Dec-03 03:24N 25°46' W 080°11'0 0.0
2016-Dec-03 02:33N 25°46' W 080°11'0 0.0
2016-Dec-03 01:33N 25°46' W 080°11'0 0.0
2016-Dec-03 00:33N 25°46' W 080°11'0 0.0
2016-Dec-02 23:33N 25°46' W 080°11'0 0.0
2016-Dec-02 22:33N 25°46' W 080°11'0 0.0
2016-Dec-02 21:33N 25°46' W 080°11'0 0.0
2016-Dec-02 20:33N 25°46' W 080°11'0 0.1
2016-Dec-02 19:33N 25°46' W 080°11'0 0.0
2016-Dec-02 18:33N 25°46' W 080°11'0 0.0
2016-Dec-02 17:33N 25°46' W 080°11'0 0.0
2016-Dec-02 16:33N 25°46' W 080°11'0 0.0
2016-Dec-02 15:33N 25°46' W 080°11'0 0.0
2016-Dec-02 14:33N 25°46' W 080°11'0 0.0
2016-Dec-02 13:33N 25°46' W 080°11'0 0.0
2016-Dec-02 12:33N 25°46' W 080°11'0 0.1
2016-Dec-02 11:12N 25°46' W 080°11'0 0.1
2016-Dec-02 10:33N 25°46' W 080°11'0 0.0
2016-Dec-02 09:33N 25°46' W 080°11'0 0.0
2016-Dec-02 08:33N 25°46' W 080°11'0 0.0
2016-Dec-02 07:33N 25°46' W 080°11'0 0.1
2016-Dec-02 06:33N 25°46' W 080°11'0 0.1
2016-Dec-02 05:33N 25°46' W 080°11'0 0.0
2016-Dec-02 04:33N 25°46' W 080°11'0 0.0
2016-Dec-02 03:33N 25°46' W 080°11'0 0.0
2016-Dec-02 02:33N 25°46' W 080°11'0 0.0
2016-Dec-02 01:33N 25°46' W 080°11'0 0.0
2016-Dec-02 00:33N 25°46' W 080°11'0 0.0
2016-Dec-01 23:18N 25°46' W 080°11'0 0.1
2016-Dec-01 22:33N 25°46' W 080°11'0 0.0
2016-Dec-01 21:33N 25°46' W 080°11'0 0.0
2016-Dec-01 20:33N 25°46' W 080°11'0 0.1
2016-Dec-01 19:33N 25°46' W 080°11'0 0.0
2016-Dec-01 18:33N 25°46' W 080°11'0 0.0
2016-Dec-01 17:33N 25°46' W 080°11'0 0.0
2016-Dec-01 16:33N 25°46' W 080°11'0 0.0
2016-Dec-01 15:33N 25°46' W 080°11'0 0.0
2016-Dec-01 14:33N 25°46' W 080°11'0 0.0
2016-Dec-01 13:33N 25°46' W 080°11'0 0.0
2016-Dec-01 12:33N 25°46' W 080°11'0 0.1
2016-Dec-01 11:18N 25°46' W 080°11'0 0.1
2016-Dec-01 10:33N 25°46' W 080°11'0 0.0
2016-Dec-01 09:33N 25°46' W 080°11'0 0.0
2016-Dec-01 08:33N 25°46' W 080°11'0 0.0
2016-Dec-01 07:33N 25°46' W 080°11'0 0.0
2016-Dec-01 06:33N 25°46' W 080°11'0 0.0
2016-Dec-01 05:33N 25°46' W 080°11'0 0.0
2016-Dec-01 04:33N 25°46' W 080°11'0 0.0
2016-Dec-01 03:30N 25°46' W 080°11'0 0.0
2016-Dec-01 02:33N 25°46' W 080°11'0 0.1
2016-Dec-01 01:33N 25°46' W 080°11'  

Dump ship's entire track history